sensor_id;sensor_type;location;lat;lon;timestamp;temperature;humidity
32502;DHT22;18952;52.516;13.460;2022-08-11T00:01:05;20.50;69.90
32502;DHT22;18952;52.516;13.460;2022-08-11T00:03:55;20.40;69.80
32502;DHT22;18952;52.516;13.460;2022-08-11T00:06:31;20.40;69.90
32502;DHT22;18952;52.516;13.460;2022-08-11T00:09:03;20.40;70.20
32502;DHT22;18952;52.516;13.460;2022-08-11T00:11:47;20.30;70.40
32502;DHT22;18952;52.516;13.460;2022-08-11T00:14:21;20.30;70.40
32502;DHT22;18952;52.516;13.460;2022-08-11T00:17:07;20.30;70.30
32502;DHT22;18952;52.516;13.460;2022-08-11T00:19:46;20.30;70.70
32502;DHT22;18952;52.516;13.460;2022-08-11T00:22:44;20.30;70.50
32502;DHT22;18952;52.516;13.460;2022-08-11T00:25:23;20.20;70.90
32502;DHT22;18952;52.516;13.460;2022-08-11T00:27:52;20.20;71.40
32502;DHT22;18952;52.516;13.460;2022-08-11T00:30:20;20.10;71.00
32502;DHT22;18952;52.516;13.460;2022-08-11T00:32:58;20.10;71.10
32502;DHT22;18952;52.516;13.460;2022-08-11T00:35:30;20.10;71.20
32502;DHT22;18952;52.516;13.460;2022-08-11T00:38:23;20.10;71.80
32502;DHT22;18952;52.516;13.460;2022-08-11T00:41:05;20.00;72.10
32502;DHT22;18952;52.516;13.460;2022-08-11T00:44:03;19.90;72.10
32502;DHT22;18952;52.516;13.460;2022-08-11T00:53:07;19.90;72.20
32502;DHT22;18952;52.516;13.460;2022-08-11T01:02:37;19.80;73.60
32502;DHT22;18952;52.516;13.460;2022-08-11T01:12:26;19.70;74.00
32502;DHT22;18952;52.516;13.460;2022-08-11T01:45:01;19.40;75.70
32502;DHT22;18952;52.516;13.460;2022-08-11T01:48:02;19.40;75.50
32502;DHT22;18952;52.516;13.460;2022-08-11T01:51:04;19.40;76.30
32502;DHT22;18952;52.516;13.460;2022-08-11T01:56:48;19.20;76.90
32502;DHT22;18952;52.516;13.460;2022-08-11T01:59:38;19.20;77.20
32502;DHT22;18952;52.516;13.460;2022-08-11T02:06:02;19.10;77.80
32502;DHT22;18952;52.516;13.460;2022-08-11T02:08:50;19.00;77.70
32502;DHT22;18952;52.516;13.460;2022-08-11T02:11:29;19.00;78.90
32502;DHT22;18952;52.516;13.460;2022-08-11T02:14:30;19.00;78.80
32502;DHT22;18952;52.516;13.460;2022-08-11T02:20:56;18.90;79.00
32502;DHT22;18952;52.516;13.460;2022-08-11T02:23:57;19.00;79.00
32502;DHT22;18952;52.516;13.460;2022-08-11T02:26:44;19.00;79.90
32502;DHT22;18952;52.516;13.460;2022-08-11T02:32:40;18.80;79.80
32502;DHT22;18952;52.516;13.460;2022-08-11T02:35:41;18.80;80.20
32502;DHT22;18952;52.516;13.460;2022-08-11T02:44:09;18.80;80.30
32502;DHT22;18952;52.516;13.460;2022-08-11T02:49:55;18.80;81.00
32502;DHT22;18952;52.516;13.460;2022-08-11T02:53:02;18.80;81.60
32502;DHT22;18952;52.516;13.460;2022-08-11T02:56:02;18.70;81.10
32502;DHT22;18952;52.516;13.460;2022-08-11T02:58:57;18.70;81.60
32502;DHT22;18952;52.516;13.460;2022-08-11T03:10:27;18.60;82.30
32502;DHT22;18952;52.516;13.460;2022-08-11T03:13:28;18.60;82.60
32502;DHT22;18952;52.516;13.460;2022-08-11T03:16:31;18.60;82.50
32502;DHT22;18952;52.516;13.460;2022-08-11T03:25:19;18.50;83.30
32502;DHT22;18952;52.516;13.460;2022-08-11T03:33:40;18.50;83.70
32502;DHT22;18952;52.516;13.460;2022-08-11T04:17:16;18.30;86.60
32502;DHT22;18952;52.516;13.460;2022-08-11T04:19:38;18.30;87.60
32502;DHT22;18952;52.516;13.460;2022-08-11T04:31:34;18.30;87.70
32502;DHT22;18952;52.516;13.460;2022-08-11T04:53:25;18.40;89.30
32502;DHT22;18952;52.516;13.460;2022-08-11T04:56:24;18.40;89.20
32502;DHT22;18952;52.516;13.460;2022-08-11T04:59:08;18.40;90.10
32502;DHT22;18952;52.516;13.460;2022-08-11T05:13:45;18.50;90.30
32502;DHT22;18952;52.516;13.460;2022-08-11T05:16:23;18.50;90.40
32502;DHT22;18952;52.516;13.460;2022-08-11T05:18:53;18.50;90.60
32502;DHT22;18952;52.516;13.460;2022-08-11T05:21:22;18.50;90.60
32502;DHT22;18952;52.516;13.460;2022-08-11T05:24:04;18.60;90.70
32502;DHT22;18952;52.516;13.460;2022-08-11T05:26:52;18.60;90.70
32502;DHT22;18952;52.516;13.460;2022-08-11T05:29:45;18.70;90.30
32502;DHT22;18952;52.516;13.460;2022-08-11T05:32:41;18.70;90.50
32502;DHT22;18952;52.516;13.460;2022-08-11T05:35:13;18.80;90.40
32502;DHT22;18952;52.516;13.460;2022-08-11T05:38:22;18.80;90.50
32502;DHT22;18952;52.516;13.460;2022-08-11T05:40:54;18.80;90.30
32502;DHT22;18952;52.516;13.460;2022-08-11T05:43:27;18.90;90.30
32502;DHT22;18952;52.516;13.460;2022-08-11T05:46:03;19.00;90.40
32502;DHT22;18952;52.516;13.460;2022-08-11T05:48:38;18.90;90.60
32502;DHT22;18952;52.516;13.460;2022-08-11T05:51:08;19.00;90.40
32502;DHT22;18952;52.516;13.460;2022-08-11T05:53:52;19.10;90.30
32502;DHT22;18952;52.516;13.460;2022-08-11T05:56:20;19.00;90.20
32502;DHT22;18952;52.516;13.460;2022-08-11T05:58:59;19.00;90.20
32502;DHT22;18952;52.516;13.460;2022-08-11T06:01:33;19.10;90.30
32502;DHT22;18952;52.516;13.460;2022-08-11T06:04:21;19.00;90.30
32502;DHT22;18952;52.516;13.460;2022-08-11T06:06:57;19.10;90.40
32502;DHT22;18952;52.516;13.460;2022-08-11T06:12:07;19.20;90.40
32502;DHT22;18952;52.516;13.460;2022-08-11T06:14:44;19.20;90.40
32502;DHT22;18952;52.516;13.460;2022-08-11T06:17:12;19.20;90.30
32502;DHT22;18952;52.516;13.460;2022-08-11T06:19:45;19.30;90.50
32502;DHT22;18952;52.516;13.460;2022-08-11T06:22:22;19.30;90.60
32502;DHT22;18952;52.516;13.460;2022-08-11T06:24:56;19.40;90.80
32502;DHT22;18952;52.516;13.460;2022-08-11T06:27:28;19.40;90.70
32502;DHT22;18952;52.516;13.460;2022-08-11T06:29:57;19.40;90.80
32502;DHT22;18952;52.516;13.460;2022-08-11T06:32:30;19.40;90.90
32502;DHT22;18952;52.516;13.460;2022-08-11T06:35:36;19.50;90.90
32502;DHT22;18952;52.516;13.460;2022-08-11T06:38:12;19.60;90.70
32502;DHT22;18952;52.516;13.460;2022-08-11T06:41:00;19.60;90.70
32502;DHT22;18952;52.516;13.460;2022-08-11T06:46:32;19.70;90.80
32502;DHT22;18952;52.516;13.460;2022-08-11T06:49:08;19.70;90.80
32502;DHT22;18952;52.516;13.460;2022-08-11T06:51:36;19.70;90.70
32502;DHT22;18952;52.516;13.460;2022-08-11T06:54:10;19.70;90.80
32502;DHT22;18952;52.516;13.460;2022-08-11T06:56:42;19.80;90.80
32502;DHT22;18952;52.516;13.460;2022-08-11T06:59:15;19.90;90.90
32502;DHT22;18952;52.516;13.460;2022-08-11T07:02:10;19.90;90.80
32502;DHT22;18952;52.516;13.460;2022-08-11T07:05:06;20.00;90.70
32502;DHT22;18952;52.516;13.460;2022-08-11T07:14:10;20.10;90.60
32502;DHT22;18952;52.516;13.460;2022-08-11T07:16:41;20.20;90.70
32502;DHT22;18952;52.516;13.460;2022-08-11T07:19:12;20.30;90.90
32502;DHT22;18952;52.516;13.460;2022-08-11T07:21:48;20.30;90.70
32502;DHT22;18952;52.516;13.460;2022-08-11T07:24:41;20.40;90.80
32502;DHT22;18952;52.516;13.460;2022-08-11T07:31:00;20.50;90.60
32502;DHT22;18952;52.516;13.460;2022-08-11T07:33:41;20.60;90.60
32502;DHT22;18952;52.516;13.460;2022-08-11T07:36:38;20.60;90.30
32502;DHT22;18952;52.516;13.460;2022-08-11T07:39:15;20.70;90.40
32502;DHT22;18952;52.516;13.460;2022-08-11T07:41:46;20.80;90.40
32502;DHT22;18952;52.516;13.460;2022-08-11T07:44:18;20.90;90.30
32502;DHT22;18952;52.516;13.460;2022-08-11T07:46:47;20.90;90.10
32502;DHT22;18952;52.516;13.460;2022-08-11T07:49:16;21.00;90.00
32502;DHT22;18952;52.516;13.460;2022-08-11T07:51:45;21.10;89.50
32502;DHT22;18952;52.516;13.460;2022-08-11T07:54:13;21.10;89.00
32502;DHT22;18952;52.516;13.460;2022-08-11T07:56:47;21.20;89.20
32502;DHT22;18952;52.516;13.460;2022-08-11T07:59:35;21.30;89.10
32502;DHT22;18952;52.516;13.460;2022-08-11T08:02:26;21.40;88.60
32502;DHT22;18952;52.516;13.460;2022-08-11T08:05:14;21.50;88.20
32502;DHT22;18952;52.516;13.460;2022-08-11T08:07:43;21.50;87.00
32502;DHT22;18952;52.516;13.460;2022-08-11T08:10:17;21.60;86.80
32502;DHT22;18952;52.516;13.460;2022-08-11T08:12:48;21.60;86.60
32502;DHT22;18952;52.516;13.460;2022-08-11T08:15:16;21.60;86.10
32502;DHT22;18952;52.516;13.460;2022-08-11T08:17:44;21.70;85.80
32502;DHT22;18952;52.516;13.460;2022-08-11T08:20:47;21.80;85.30
32502;DHT22;18952;52.516;13.460;2022-08-11T08:23:20;21.90;84.20
32502;DHT22;18952;52.516;13.460;2022-08-11T08:25:53;21.90;84.40
32502;DHT22;18952;52.516;13.460;2022-08-11T08:28:20;22.00;83.60
32502;DHT22;18952;52.516;13.460;2022-08-11T08:30:56;22.00;83.80
32502;DHT22;18952;52.516;13.460;2022-08-11T08:33:27;22.10;83.60
32502;DHT22;18952;52.516;13.460;2022-08-11T08:36:02;22.20;83.30
32502;DHT22;18952;52.516;13.460;2022-08-11T08:38:33;22.30;82.50
32502;DHT22;18952;52.516;13.460;2022-08-11T08:41:03;22.40;82.10
32502;DHT22;18952;52.516;13.460;2022-08-11T08:43:35;22.40;80.80
32502;DHT22;18952;52.516;13.460;2022-08-11T08:46:32;22.50;80.10
32502;DHT22;18952;52.516;13.460;2022-08-11T08:49:02;22.50;79.70
32502;DHT22;18952;52.516;13.460;2022-08-11T08:51:35;22.60;80.00
32502;DHT22;18952;52.516;13.460;2022-08-11T08:54:41;22.60;80.20
32502;DHT22;18952;52.516;13.460;2022-08-11T08:57:11;22.70;79.60
32502;DHT22;18952;52.516;13.460;2022-08-11T08:59:46;22.70;79.10
32502;DHT22;18952;52.516;13.460;2022-08-11T09:02:22;22.70;78.60
32502;DHT22;18952;52.516;13.460;2022-08-11T09:05:10;22.70;78.30
32502;DHT22;18952;52.516;13.460;2022-08-11T09:07:40;22.80;78.10
32502;DHT22;18952;52.516;13.460;2022-08-11T09:10:13;22.80;77.50
32502;DHT22;18952;52.516;13.460;2022-08-11T09:12:42;22.90;77.40
32502;DHT22;18952;52.516;13.460;2022-08-11T09:15:21;22.90;76.90
32502;DHT22;18952;52.516;13.460;2022-08-11T09:18:00;22.90;75.70
32502;DHT22;18952;52.516;13.460;2022-08-11T09:20:35;23.00;76.10
32502;DHT22;18952;52.516;13.460;2022-08-11T09:23:07;23.00;76.10
32502;DHT22;18952;52.516;13.460;2022-08-11T09:26:05;23.10;76.00
32502;DHT22;18952;52.516;13.460;2022-08-11T09:28:34;23.20;75.20
32502;DHT22;18952;52.516;13.460;2022-08-11T09:31:04;23.20;74.00
32502;DHT22;18952;52.516;13.460;2022-08-11T09:33:34;23.30;74.10
32502;DHT22;18952;52.516;13.460;2022-08-11T09:36:01;23.30;73.30
32502;DHT22;18952;52.516;13.460;2022-08-11T09:38:30;23.40;73.30
32502;DHT22;18952;52.516;13.460;2022-08-11T09:40:58;23.40;73.10
32502;DHT22;18952;52.516;13.460;2022-08-11T09:43:28;23.50;72.40
32502;DHT22;18952;52.516;13.460;2022-08-11T09:46:04;23.60;72.20
32502;DHT22;18952;52.516;13.460;2022-08-11T09:48:44;23.70;72.20
32502;DHT22;18952;52.516;13.460;2022-08-11T09:51:13;23.70;71.80
32502;DHT22;18952;52.516;13.460;2022-08-11T09:53:49;23.80;70.70
32502;DHT22;18952;52.516;13.460;2022-08-11T09:56:31;23.90;70.60
32502;DHT22;18952;52.516;13.460;2022-08-11T09:59:04;24.00;70.60
32502;DHT22;18952;52.516;13.460;2022-08-11T10:01:38;24.10;70.30
32502;DHT22;18952;52.516;13.460;2022-08-11T10:04:24;24.10;69.40
32502;DHT22;18952;52.516;13.460;2022-08-11T10:06:56;24.10;68.10
32502;DHT22;18952;52.516;13.460;2022-08-11T10:09:57;24.10;67.60
32502;DHT22;18952;52.516;13.460;2022-08-11T10:12:36;24.10;68.20
32502;DHT22;18952;52.516;13.460;2022-08-11T10:15:15;24.20;68.50
32502;DHT22;18952;52.516;13.460;2022-08-11T10:17:50;24.30;67.80
32502;DHT22;18952;52.516;13.460;2022-08-11T10:20:20;24.40;66.60
32502;DHT22;18952;52.516;13.460;2022-08-11T10:22:54;24.40;66.90
32502;DHT22;18952;52.516;13.460;2022-08-11T10:25:21;24.50;66.90
32502;DHT22;18952;52.516;13.460;2022-08-11T10:27:52;24.60;67.10
32502;DHT22;18952;52.516;13.460;2022-08-11T10:30:45;24.60;66.80
32502;DHT22;18952;52.516;13.460;2022-08-11T10:33:16;24.70;65.80
32502;DHT22;18952;52.516;13.460;2022-08-11T10:36:06;24.80;65.10
32502;DHT22;18952;52.516;13.460;2022-08-11T10:38:45;24.90;64.80
32502;DHT22;18952;52.516;13.460;2022-08-11T10:41:18;25.00;64.90
32502;DHT22;18952;52.516;13.460;2022-08-11T10:43:50;25.00;64.80
32502;DHT22;18952;52.516;13.460;2022-08-11T10:46:30;25.10;64.20
32502;DHT22;18952;52.516;13.460;2022-08-11T10:48:59;25.10;63.20
32502;DHT22;18952;52.516;13.460;2022-08-11T10:51:28;25.10;63.20
32502;DHT22;18952;52.516;13.460;2022-08-11T10:54:22;25.10;63.70
32502;DHT22;18952;52.516;13.460;2022-08-11T10:56:56;25.10;63.30
32502;DHT22;18952;52.516;13.460;2022-08-11T10:59:31;25.10;62.80
32502;DHT22;18952;52.516;13.460;2022-08-11T11:02:01;25.10;63.00
32502;DHT22;18952;52.516;13.460;2022-08-11T11:10:15;25.40;61.40
32502;DHT22;18952;52.516;13.460;2022-08-11T11:12:56;25.50;60.90
32502;DHT22;18952;52.516;13.460;2022-08-11T11:15:25;25.40;60.00
32502;DHT22;18952;52.516;13.460;2022-08-11T11:18:03;25.40;60.50
32502;DHT22;18952;52.516;13.460;2022-08-11T11:21:04;25.40;60.60
32502;DHT22;18952;52.516;13.460;2022-08-11T11:23:54;25.50;59.80
32502;DHT22;18952;52.516;13.460;2022-08-11T11:35:31;26.00;58.50
32502;DHT22;18952;52.516;13.460;2022-08-11T11:38:02;26.10;57.10
32502;DHT22;18952;52.516;13.460;2022-08-11T11:40:43;26.10;57.70
32502;DHT22;18952;52.516;13.460;2022-08-11T11:43:13;26.10;57.90
32502;DHT22;18952;52.516;13.460;2022-08-11T11:45:41;26.30;58.10
32502;DHT22;18952;52.516;13.460;2022-08-11T11:48:10;26.40;58.70
32502;DHT22;18952;52.516;13.460;2022-08-11T11:50:39;26.50;57.70
32502;DHT22;18952;52.516;13.460;2022-08-11T11:53:10;26.60;57.80
32502;DHT22;18952;52.516;13.460;2022-08-11T11:55:40;26.70;56.50
32502;DHT22;18952;52.516;13.460;2022-08-11T11:58:10;26.70;56.40
32502;DHT22;18952;52.516;13.460;2022-08-11T12:00:50;26.80;56.00
32502;DHT22;18952;52.516;13.460;2022-08-11T12:03:19;27.00;55.70
32502;DHT22;18952;52.516;13.460;2022-08-11T12:05:51;27.20;55.90
32502;DHT22;18952;52.516;13.460;2022-08-11T12:08:20;27.30;54.50
32502;DHT22;18952;52.516;13.460;2022-08-11T12:11:03;27.50;53.90
32502;DHT22;18952;52.516;13.460;2022-08-11T12:13:55;27.70;53.70
32502;DHT22;18952;52.516;13.460;2022-08-11T12:16:28;28.00;52.60
32502;DHT22;18952;52.516;13.460;2022-08-11T12:19:03;28.20;51.90
32502;DHT22;18952;52.516;13.460;2022-08-11T12:21:33;28.40;51.80
32502;DHT22;18952;52.516;13.460;2022-08-11T12:24:03;28.70;51.40
32502;DHT22;18952;52.516;13.460;2022-08-11T12:26:44;28.90;51.50
32502;DHT22;18952;52.516;13.460;2022-08-11T12:29:36;29.10;50.30
32502;DHT22;18952;52.516;13.460;2022-08-11T12:32:11;29.40;50.50
32502;DHT22;18952;52.516;13.460;2022-08-11T12:34:41;29.60;50.80
32502;DHT22;18952;52.516;13.460;2022-08-11T12:37:09;29.70;50.10
32502;DHT22;18952;52.516;13.460;2022-08-11T12:39:44;30.00;50.30
32502;DHT22;18952;52.516;13.460;2022-08-11T12:42:34;30.10;50.00
32502;DHT22;18952;52.516;13.460;2022-08-11T12:45:13;30.30;48.90
32502;DHT22;18952;52.516;13.460;2022-08-11T12:47:49;30.40;48.60
32502;DHT22;18952;52.516;13.460;2022-08-11T12:50:41;30.50;48.80
32502;DHT22;18952;52.516;13.460;2022-08-11T12:53:12;30.80;48.70
32502;DHT22;18952;52.516;13.460;2022-08-11T12:55:41;30.90;48.00
32502;DHT22;18952;52.516;13.460;2022-08-11T12:58:30;30.90;48.20
32502;DHT22;18952;52.516;13.460;2022-08-11T13:00:58;31.10;48.30
32502;DHT22;18952;52.516;13.460;2022-08-11T13:03:29;31.40;47.90
32502;DHT22;18952;52.516;13.460;2022-08-11T13:06:03;31.50;47.70
32502;DHT22;18952;52.516;13.460;2022-08-11T13:08:36;31.80;47.20
32502;DHT22;18952;52.516;13.460;2022-08-11T13:11:06;32.10;46.70
32502;DHT22;18952;52.516;13.460;2022-08-11T13:13:46;32.30;46.60
32502;DHT22;18952;52.516;13.460;2022-08-11T13:16:27;32.60;46.40
32502;DHT22;18952;52.516;13.460;2022-08-11T13:18:58;32.70;45.60
32502;DHT22;18952;52.516;13.460;2022-08-11T13:21:34;32.80;45.10
32502;DHT22;18952;52.516;13.460;2022-08-11T13:24:02;32.90;45.10
32502;DHT22;18952;52.516;13.460;2022-08-11T13:26:36;33.10;44.50
32502;DHT22;18952;52.516;13.460;2022-08-11T13:29:27;33.30;44.10
32502;DHT22;18952;52.516;13.460;2022-08-11T13:31:57;33.50;43.80
32502;DHT22;18952;52.516;13.460;2022-08-11T13:34:27;33.60;44.10
32502;DHT22;18952;52.516;13.460;2022-08-11T13:36:59;33.60;43.10
32502;DHT22;18952;52.516;13.460;2022-08-11T13:39:30;33.90;42.80
32502;DHT22;18952;52.516;13.460;2022-08-11T13:42:02;34.00;42.90
32502;DHT22;18952;52.516;13.460;2022-08-11T13:44:36;34.20;42.30
32502;DHT22;18952;52.516;13.460;2022-08-11T13:47:11;34.40;42.10
32502;DHT22;18952;52.516;13.460;2022-08-11T13:49:43;34.50;41.70
32502;DHT22;18952;52.516;13.460;2022-08-11T13:52:14;34.50;41.30
32502;DHT22;18952;52.516;13.460;2022-08-11T13:54:45;34.50;40.70
32502;DHT22;18952;52.516;13.460;2022-08-11T13:57:14;34.70;40.40
32502;DHT22;18952;52.516;13.460;2022-08-11T14:00:08;34.80;40.20
32502;DHT22;18952;52.516;13.460;2022-08-11T14:02:56;34.90;39.80
32502;DHT22;18952;52.516;13.460;2022-08-11T14:05:45;35.00;39.70
32502;DHT22;18952;52.516;13.460;2022-08-11T14:08:20;35.20;39.50
32502;DHT22;18952;52.516;13.460;2022-08-11T14:11:06;35.00;38.50
32502;DHT22;18952;52.516;13.460;2022-08-11T14:13:55;34.90;39.30
32502;DHT22;18952;52.516;13.460;2022-08-11T14:16:40;34.80;39.00
32502;DHT22;18952;52.516;13.460;2022-08-11T14:19:14;35.00;38.30
32502;DHT22;18952;52.516;13.460;2022-08-11T14:21:53;35.20;37.90
32502;DHT22;18952;52.516;13.460;2022-08-11T14:24:23;35.30;38.10
32502;DHT22;18952;52.516;13.460;2022-08-11T14:26:53;35.30;37.70
32502;DHT22;18952;52.516;13.460;2022-08-11T14:29:24;35.40;38.00
32502;DHT22;18952;52.516;13.460;2022-08-11T14:31:59;35.40;38.00
32502;DHT22;18952;52.516;13.460;2022-08-11T14:34:28;35.50;37.80
32502;DHT22;18952;52.516;13.460;2022-08-11T14:37:09;35.40;37.40
32502;DHT22;18952;52.516;13.460;2022-08-11T14:40:02;35.50;37.10
32502;DHT22;18952;52.516;13.460;2022-08-11T14:42:32;35.50;37.10
32502;DHT22;18952;52.516;13.460;2022-08-11T14:45:12;35.50;36.90
32502;DHT22;18952;52.516;13.460;2022-08-11T14:48:02;35.50;36.30
32502;DHT22;18952;52.516;13.460;2022-08-11T14:50:33;35.30;36.90
32502;DHT22;18952;52.516;13.460;2022-08-11T14:53:08;35.30;36.80
32502;DHT22;18952;52.516;13.460;2022-08-11T14:55:43;35.30;36.90
32502;DHT22;18952;52.516;13.460;2022-08-11T14:58:12;35.40;36.70
32502;DHT22;18952;52.516;13.460;2022-08-11T15:00:44;35.60;36.70
32502;DHT22;18952;52.516;13.460;2022-08-11T15:03:13;35.70;36.50
32502;DHT22;18952;52.516;13.460;2022-08-11T15:05:53;35.70;36.30
32502;DHT22;18952;52.516;13.460;2022-08-11T15:08:34;35.60;35.40
32502;DHT22;18952;52.516;13.460;2022-08-11T15:11:05;35.50;36.30
32502;DHT22;18952;52.516;13.460;2022-08-11T15:13:35;35.70;36.20
32502;DHT22;18952;52.516;13.460;2022-08-11T15:16:05;35.70;36.00
32502;DHT22;18952;52.516;13.460;2022-08-11T15:18:34;35.70;35.70
32502;DHT22;18952;52.516;13.460;2022-08-11T15:21:03;35.60;35.70
32502;DHT22;18952;52.516;13.460;2022-08-11T15:23:30;35.60;35.40
32502;DHT22;18952;52.516;13.460;2022-08-11T15:26:24;35.50;35.40
32502;DHT22;18952;52.516;13.460;2022-08-11T15:28:57;35.50;35.20
32502;DHT22;18952;52.516;13.460;2022-08-11T15:31:27;35.50;35.30
32502;DHT22;18952;52.516;13.460;2022-08-11T15:34:03;35.40;35.00
32502;DHT22;18952;52.516;13.460;2022-08-11T15:36:33;35.40;35.60
32502;DHT22;18952;52.516;13.460;2022-08-11T15:39:23;35.40;35.50
32502;DHT22;18952;52.516;13.460;2022-08-11T15:42:14;35.50;35.00
32502;DHT22;18952;52.516;13.460;2022-08-11T15:44:52;35.30;35.00
32502;DHT22;18952;52.516;13.460;2022-08-11T15:47:37;35.20;35.00
32502;DHT22;18952;52.516;13.460;2022-08-11T15:50:18;35.20;35.10
32502;DHT22;18952;52.516;13.460;2022-08-11T15:52:54;35.10;34.80
32502;DHT22;18952;52.516;13.460;2022-08-11T15:55:26;35.10;34.80
32502;DHT22;18952;52.516;13.460;2022-08-11T15:57:58;35.10;34.90
32502;DHT22;18952;52.516;13.460;2022-08-11T16:00:29;35.10;33.90
32502;DHT22;18952;52.516;13.460;2022-08-11T16:03:00;35.10;34.10
32502;DHT22;18952;52.516;13.460;2022-08-11T16:05:30;35.10;34.30
32502;DHT22;18952;52.516;13.460;2022-08-11T16:08:21;35.10;34.00
32502;DHT22;18952;52.516;13.460;2022-08-11T16:11:01;35.00;33.90
32502;DHT22;18952;52.516;13.460;2022-08-11T16:13:40;35.00;34.20
32502;DHT22;18952;52.516;13.460;2022-08-11T16:16:15;34.90;33.80
32502;DHT22;18952;52.516;13.460;2022-08-11T16:18:56;34.70;34.30
32502;DHT22;18952;52.516;13.460;2022-08-11T16:21:35;34.60;33.90
32502;DHT22;18952;52.516;13.460;2022-08-11T16:24:11;34.40;34.30
32502;DHT22;18952;52.516;13.460;2022-08-11T16:27:00;34.40;34.20
32502;DHT22;18952;52.516;13.460;2022-08-11T16:29:43;34.40;34.50
32502;DHT22;18952;52.516;13.460;2022-08-11T16:32:16;34.20;34.60
32502;DHT22;18952;52.516;13.460;2022-08-11T16:35:00;34.00;34.60
32502;DHT22;18952;52.516;13.460;2022-08-11T16:37:35;34.00;34.60
32502;DHT22;18952;52.516;13.460;2022-08-11T16:40:07;33.80;34.50
32502;DHT22;18952;52.516;13.460;2022-08-11T16:42:38;33.60;35.00
32502;DHT22;18952;52.516;13.460;2022-08-11T16:45:30;33.50;35.00
32502;DHT22;18952;52.516;13.460;2022-08-11T16:47:59;33.40;34.90
32502;DHT22;18952;52.516;13.460;2022-08-11T16:50:51;33.50;34.90
32502;DHT22;18952;52.516;13.460;2022-08-11T16:53:19;33.50;34.70
32502;DHT22;18952;52.516;13.460;2022-08-11T16:55:48;33.30;35.00
32502;DHT22;18952;52.516;13.460;2022-08-11T16:58:23;33.30;35.10
32502;DHT22;18952;52.516;13.460;2022-08-11T17:00:51;33.20;35.00
32502;DHT22;18952;52.516;13.460;2022-08-11T17:03:20;33.10;35.20
32502;DHT22;18952;52.516;13.460;2022-08-11T17:05:51;32.90;34.80
32502;DHT22;18952;52.516;13.460;2022-08-11T17:08:29;32.80;35.20
32502;DHT22;18952;52.516;13.460;2022-08-11T17:11:03;32.80;35.60
32502;DHT22;18952;52.516;13.460;2022-08-11T17:13:43;32.70;35.30
32502;DHT22;18952;52.516;13.460;2022-08-11T17:16:16;32.60;35.40
32502;DHT22;18952;52.516;13.460;2022-08-11T17:18:53;32.60;35.60
32502;DHT22;18952;52.516;13.460;2022-08-11T17:21:31;32.50;35.50
32502;DHT22;18952;52.516;13.460;2022-08-11T17:24:09;32.30;35.40
32502;DHT22;18952;52.516;13.460;2022-08-11T17:26:42;32.00;35.50
32502;DHT22;18952;52.516;13.460;2022-08-11T17:29:12;31.80;35.80
32502;DHT22;18952;52.516;13.460;2022-08-11T17:31:42;31.70;35.80
32502;DHT22;18952;52.516;13.460;2022-08-11T17:34:11;31.60;35.60
32502;DHT22;18952;52.516;13.460;2022-08-11T17:36:42;31.50;35.80
32502;DHT22;18952;52.516;13.460;2022-08-11T17:39:13;31.50;35.90
32502;DHT22;18952;52.516;13.460;2022-08-11T17:41:41;31.40;36.00
32502;DHT22;18952;52.516;13.460;2022-08-11T17:44:10;31.30;36.10
32502;DHT22;18952;52.516;13.460;2022-08-11T17:46:39;31.10;36.30
32502;DHT22;18952;52.516;13.460;2022-08-11T17:49:09;31.00;36.70
32502;DHT22;18952;52.516;13.460;2022-08-11T17:51:47;30.90;36.60
32502;DHT22;18952;52.516;13.460;2022-08-11T17:54:15;30.80;36.80
32502;DHT22;18952;52.516;13.460;2022-08-11T17:56:53;30.60;36.90
32502;DHT22;18952;52.516;13.460;2022-08-11T17:59:22;30.50;37.10
32502;DHT22;18952;52.516;13.460;2022-08-11T18:02:01;30.30;37.30
32502;DHT22;18952;52.516;13.460;2022-08-11T18:04:33;30.20;37.20
32502;DHT22;18952;52.516;13.460;2022-08-11T18:07:00;30.10;37.40
32502;DHT22;18952;52.516;13.460;2022-08-11T18:09:28;29.90;37.60
32502;DHT22;18952;52.516;13.460;2022-08-11T18:11:58;29.70;37.60
32502;DHT22;18952;52.516;13.460;2022-08-11T18:14:50;29.40;38.00
32502;DHT22;18952;52.516;13.460;2022-08-11T18:17:19;29.30;38.00
32502;DHT22;18952;52.516;13.460;2022-08-11T18:19:47;29.10;38.20
32502;DHT22;18952;52.516;13.460;2022-08-11T18:22:26;29.00;38.20
32502;DHT22;18952;52.516;13.460;2022-08-11T18:25:00;28.80;38.50
32502;DHT22;18952;52.516;13.460;2022-08-11T18:27:37;28.60;38.60
32502;DHT22;18952;52.516;13.460;2022-08-11T18:30:06;28.50;38.90
32502;DHT22;18952;52.516;13.460;2022-08-11T18:32:39;28.30;39.00
32502;DHT22;18952;52.516;13.460;2022-08-11T18:35:20;28.20;39.10
32502;DHT22;18952;52.516;13.460;2022-08-11T18:37:49;28.10;39.40
32502;DHT22;18952;52.516;13.460;2022-08-11T18:40:23;28.00;39.40
32502;DHT22;18952;52.516;13.460;2022-08-11T18:42:55;27.80;39.60
32502;DHT22;18952;52.516;13.460;2022-08-11T18:45:24;27.70;39.80
32502;DHT22;18952;52.516;13.460;2022-08-11T18:48:12;27.60;40.10
32502;DHT22;18952;52.516;13.460;2022-08-11T18:50:43;27.50;40.20
32502;DHT22;18952;52.516;13.460;2022-08-11T18:53:22;27.30;40.40
32502;DHT22;18952;52.516;13.460;2022-08-11T18:55:53;27.20;40.60
32502;DHT22;18952;52.516;13.460;2022-08-11T18:58:29;27.10;40.70
32502;DHT22;18952;52.516;13.460;2022-08-11T19:01:02;27.00;41.00
32502;DHT22;18952;52.516;13.460;2022-08-11T19:03:32;26.90;41.10
32502;DHT22;18952;52.516;13.460;2022-08-11T19:06:18;26.70;41.20
32502;DHT22;18952;52.516;13.460;2022-08-11T19:09:11;26.70;41.40
32502;DHT22;18952;52.516;13.460;2022-08-11T19:11:41;26.60;41.50
32502;DHT22;18952;52.516;13.460;2022-08-11T19:14:13;26.50;41.70
32502;DHT22;18952;52.516;13.460;2022-08-11T19:16:43;26.40;41.80
32502;DHT22;18952;52.516;13.460;2022-08-11T19:19:13;26.30;42.00
32502;DHT22;18952;52.516;13.460;2022-08-11T19:21:42;26.30;42.10
32502;DHT22;18952;52.516;13.460;2022-08-11T19:24:12;26.20;42.30
32502;DHT22;18952;52.516;13.460;2022-08-11T19:26:43;26.10;42.50
32502;DHT22;18952;52.516;13.460;2022-08-11T19:29:20;26.00;42.70
32502;DHT22;18952;52.516;13.460;2022-08-11T19:32:12;25.90;42.70
32502;DHT22;18952;52.516;13.460;2022-08-11T19:34:42;25.80;43.20
32502;DHT22;18952;52.516;13.460;2022-08-11T19:37:11;25.70;43.40
32502;DHT22;18952;52.516;13.460;2022-08-11T19:39:48;25.70;43.30
32502;DHT22;18952;52.516;13.460;2022-08-11T19:42:17;25.60;44.20